sensor_id;sensor_type;location;lat;lon;timestamp;P1;durP1;ratioP1;P2;durP2;ratioP2
40367;SDS011;26075;43.320;21.920;2023-02-11T00:02:13;83.03;;;49.85;;
40367;SDS011;26075;43.320;21.920;2023-02-11T00:07:14;86.20;;;52.38;;
40367;SDS011;26075;43.320;21.920;2023-02-11T00:12:15;92.43;;;54.53;;
40367;SDS011;26075;43.320;21.920;2023-02-11T00:17:18;93.13;;;54.45;;
40367;SDS011;26075;43.320;21.920;2023-02-11T00:22:19;93.20;;;58.97;;
40367;SDS011;26075;43.320;21.920;2023-02-11T00:27:20;92.75;;;56.88;;
40367;SDS011;26075;43.320;21.920;2023-02-11T00:32:21;91.97;;;56.67;;
40367;SDS011;26075;43.320;21.920;2023-02-11T00:37:22;93.82;;;57.40;;
40367;SDS011;26075;43.320;21.920;2023-02-11T00:42:23;93.03;;;56.33;;
40367;SDS011;26075;43.320;21.920;2023-02-11T00:47:24;91.43;;;53.03;;
40367;SDS011;26075;43.320;21.920;2023-02-11T00:52:25;80.82;;;50.63;;
40367;SDS011;26075;43.320;21.920;2023-02-11T00:57:26;84.10;;;52.92;;
40367;SDS011;26075;43.320;21.920;2023-02-11T01:14:02;90.45;;;53.33;;
40367;SDS011;26075;43.320;21.920;2023-02-11T01:19:11;93.55;;;52.50;;
40367;SDS011;26075;43.320;21.920;2023-02-11T01:24:12;76.68;;;48.22;;
40367;SDS011;26075;43.320;21.920;2023-02-11T01:29:13;76.45;;;46.10;;
40367;SDS011;26075;43.320;21.920;2023-02-11T01:34:14;85.55;;;50.53;;
40367;SDS011;26075;43.320;21.920;2023-02-11T01:39:15;76.20;;;47.42;;
40367;SDS011;26075;43.320;21.920;2023-02-11T01:44:24;75.63;;;46.78;;
40367;SDS011;26075;43.320;21.920;2023-02-11T01:49:29;76.22;;;45.63;;
40367;SDS011;26075;43.320;21.920;2023-02-11T01:54:37;76.03;;;44.58;;
40367;SDS011;26075;43.320;21.920;2023-02-11T02:16:48;100.72;;;57.22;;
40367;SDS011;26075;43.320;21.920;2023-02-11T02:43:53;91.40;;;55.40;;
40367;SDS011;26075;43.320;21.920;2023-02-11T02:48:54;90.10;;;53.42;;
40367;SDS011;26075;43.320;21.920;2023-02-11T03:05:16;83.25;;;49.78;;
40367;SDS011;26075;43.320;21.920;2023-02-11T03:10:24;81.03;;;47.47;;
40367;SDS011;26075;43.320;21.920;2023-02-11T03:21:38;70.25;;;42.13;;
40367;SDS011;26075;43.320;21.920;2023-02-11T03:26:42;69.30;;;41.42;;
40367;SDS011;26075;43.320;21.920;2023-02-11T03:32:29;66.65;;;38.58;;
40367;SDS011;26075;43.320;21.920;2023-02-11T03:37:34;65.80;;;39.75;;
40367;SDS011;26075;43.320;21.920;2023-02-11T03:48:32;73.80;;;43.55;;
40367;SDS011;26075;43.320;21.920;2023-02-11T03:53:37;78.55;;;43.95;;
40367;SDS011;26075;43.320;21.920;2023-02-11T03:58:40;71.90;;;45.38;;
40367;SDS011;26075;43.320;21.920;2023-02-11T04:14:41;58.83;;;36.92;;
40367;SDS011;26075;43.320;21.920;2023-02-11T04:19:42;59.42;;;36.78;;
40367;SDS011;26075;43.320;21.920;2023-02-11T04:24:42;67.43;;;39.83;;
40367;SDS011;26075;43.320;21.920;2023-02-11T04:46:37;73.88;;;43.08;;
40367;SDS011;26075;43.320;21.920;2023-02-11T04:57:36;73.28;;;43.40;;
40367;SDS011;26075;43.320;21.920;2023-02-11T05:08:34;77.03;;;46.10;;
40367;SDS011;26075;43.320;21.920;2023-02-11T05:24:32;71.15;;;40.42;;
40367;SDS011;26075;43.320;21.920;2023-02-11T05:29:33;62.00;;;37.33;;
40367;SDS011;26075;43.320;21.920;2023-02-11T05:34:34;63.58;;;37.05;;
40367;SDS011;26075;43.320;21.920;2023-02-11T05:39:35;58.83;;;36.20;;
40367;SDS011;26075;43.320;21.920;2023-02-11T05:44:36;61.90;;;35.53;;
40367;SDS011;26075;43.320;21.920;2023-02-11T05:55:34;62.30;;;35.97;;
40367;SDS011;26075;43.320;21.920;2023-02-11T06:06:10;66.97;;;38.03;;
40367;SDS011;26075;43.320;21.920;2023-02-11T06:11:13;67.10;;;38.42;;
40367;SDS011;26075;43.320;21.920;2023-02-11T06:16:14;70.80;;;40.28;;
40367;SDS011;26075;43.320;21.920;2023-02-11T06:21:15;65.65;;;38.90;;
40367;SDS011;26075;43.320;21.920;2023-02-11T06:26:17;73.93;;;42.92;;
40367;SDS011;26075;43.320;21.920;2023-02-11T06:31:20;83.53;;;45.70;;
40367;SDS011;26075;43.320;21.920;2023-02-11T06:58:55;86.10;;;49.03;;
40367;SDS011;26075;43.320;21.920;2023-02-11T07:09:21;85.65;;;53.58;;
40367;SDS011;26075;43.320;21.920;2023-02-11T07:14:22;102.95;;;64.18;;
40367;SDS011;26075;43.320;21.920;2023-02-11T07:19:23;119.75;;;69.28;;
40367;SDS011;26075;43.320;21.920;2023-02-11T07:24:24;102.32;;;62.65;;
40367;SDS011;26075;43.320;21.920;2023-02-11T07:35:04;95.68;;;58.58;;
40367;SDS011;26075;43.320;21.920;2023-02-11T07:40:12;99.90;;;61.60;;
40367;SDS011;26075;43.320;21.920;2023-02-11T07:45:12;97.75;;;60.20;;
40367;SDS011;26075;43.320;21.920;2023-02-11T07:50:14;97.60;;;58.13;;
40367;SDS011;26075;43.320;21.920;2023-02-11T07:55:16;103.55;;;58.60;;
40367;SDS011;26075;43.320;21.920;2023-02-11T08:00:17;100.45;;;58.28;;
40367;SDS011;26075;43.320;21.920;2023-02-11T08:05:17;94.57;;;58.47;;
40367;SDS011;26075;43.320;21.920;2023-02-11T08:10:18;104.22;;;58.40;;
40367;SDS011;26075;43.320;21.920;2023-02-11T08:15:19;108.50;;;60.35;;
40367;SDS011;26075;43.320;21.920;2023-02-11T08:20:20;106.22;;;65.68;;
40367;SDS011;26075;43.320;21.920;2023-02-11T08:25:21;120.28;;;65.10;;
40367;SDS011;26075;43.320;21.920;2023-02-11T08:30:22;114.65;;;72.57;;
40367;SDS011;26075;43.320;21.920;2023-02-11T08:35:24;128.25;;;77.88;;
40367;SDS011;26075;43.320;21.920;2023-02-11T08:40:25;128.48;;;82.72;;
40367;SDS011;26075;43.320;21.920;2023-02-11T08:45:26;138.15;;;84.55;;
40367;SDS011;26075;43.320;21.920;2023-02-11T08:50:27;127.40;;;79.50;;
40367;SDS011;26075;43.320;21.920;2023-02-11T08:55:28;128.73;;;75.03;;
40367;SDS011;26075;43.320;21.920;2023-02-11T09:00:29;115.00;;;71.75;;
40367;SDS011;26075;43.320;21.920;2023-02-11T09:05:29;111.38;;;71.57;;
40367;SDS011;26075;43.320;21.920;2023-02-11T09:10:30;114.93;;;71.97;;
40367;SDS011;26075;43.320;21.920;2023-02-11T09:15:32;106.65;;;67.53;;
40367;SDS011;26075;43.320;21.920;2023-02-11T09:20:33;114.22;;;68.70;;
40367;SDS011;26075;43.320;21.920;2023-02-11T09:25:34;104.47;;;64.82;;
40367;SDS011;26075;43.320;21.920;2023-02-11T09:30:35;92.03;;;60.00;;
40367;SDS011;26075;43.320;21.920;2023-02-11T09:35:36;97.35;;;59.13;;
40367;SDS011;26075;43.320;21.920;2023-02-11T09:40:41;88.72;;;57.88;;
40367;SDS011;26075;43.320;21.920;2023-02-11T09:56:38;114.80;;;73.22;;
40367;SDS011;26075;43.320;21.920;2023-02-11T10:01:49;90.60;;;60.25;;
40367;SDS011;26075;43.320;21.920;2023-02-11T10:07:06;73.10;;;47.53;;
40367;SDS011;26075;43.320;21.920;2023-02-11T10:17:54;53.55;;;34.60;;
40367;SDS011;26075;43.320;21.920;2023-02-11T10:45:03;61.22;;;37.28;;
40367;SDS011;26075;43.320;21.920;2023-02-11T10:50:24;54.35;;;35.13;;
40367;SDS011;26075;43.320;21.920;2023-02-11T10:55:27;52.05;;;32.72;;
40367;SDS011;26075;43.320;21.920;2023-02-11T11:06:12;51.28;;;31.67;;
40367;SDS011;26075;43.320;21.920;2023-02-11T11:11:20;50.42;;;31.98;;
40367;SDS011;26075;43.320;21.920;2023-02-11T11:16:23;50.42;;;33.00;;
40367;SDS011;26075;43.320;21.920;2023-02-11T11:21:32;51.53;;;32.08;;
40367;SDS011;26075;43.320;21.920;2023-02-11T11:26:39;51.28;;;32.22;;
40367;SDS011;26075;43.320;21.920;2023-02-11T11:31:46;52.35;;;34.00;;
40367;SDS011;26075;43.320;21.920;2023-02-11T11:37:33;53.65;;;34.25;;
40367;SDS011;26075;43.320;21.920;2023-02-11T11:42:34;46.67;;;31.75;;
40367;SDS011;26075;43.320;21.920;2023-02-11T11:53:42;49.45;;;32.28;;
40367;SDS011;26075;43.320;21.920;2023-02-11T11:58:50;48.63;;;31.60;;
40367;SDS011;26075;43.320;21.920;2023-02-11T12:25:21;54.75;;;35.17;;
40367;SDS011;26075;43.320;21.920;2023-02-11T12:53:03;50.22;;;31.60;;
40367;SDS011;26075;43.320;21.920;2023-02-11T13:04:06;46.47;;;30.80;;
40367;SDS011;26075;43.320;21.920;2023-02-11T13:09:22;48.17;;;32.00;;
40367;SDS011;26075;43.320;21.920;2023-02-11T13:14:28;49.13;;;32.15;;
40367;SDS011;26075;43.320;21.920;2023-02-11T13:25:05;49.15;;;33.08;;
40367;SDS011;26075;43.320;21.920;2023-02-11T13:30:19;49.42;;;30.58;;
40367;SDS011;26075;43.320;21.920;2023-02-11T13:35:35;40.60;;;28.90;;
40367;SDS011;26075;43.320;21.920;2023-02-11T13:40:42;42.85;;;28.85;;
40367;SDS011;26075;43.320;21.920;2023-02-11T13:45:45;49.95;;;31.20;;
40367;SDS011;26075;43.320;21.920;2023-02-11T13:56:34;39.53;;;29.60;;
40367;SDS011;26075;43.320;21.920;2023-02-11T14:01:37;47.28;;;31.25;;
40367;SDS011;26075;43.320;21.920;2023-02-11T14:06:46;42.42;;;30.20;;
40367;SDS011;26075;43.320;21.920;2023-02-11T14:12:39;48.08;;;30.70;;
40367;SDS011;26075;43.320;21.920;2023-02-11T14:17:40;43.30;;;29.67;;
40367;SDS011;26075;43.320;21.920;2023-02-11T14:22:43;47.03;;;31.05;;
40367;SDS011;26075;43.320;21.920;2023-02-11T14:27:52;43.13;;;29.70;;
40367;SDS011;26075;43.320;21.920;2023-02-11T14:38:27;42.83;;;29.63;;
40367;SDS011;26075;43.320;21.920;2023-02-11T14:43:50;46.88;;;31.83;;
40367;SDS011;26075;43.320;21.920;2023-02-11T14:48:58;50.50;;;33.67;;
40367;SDS011;26075;43.320;21.920;2023-02-11T14:54:08;49.17;;;32.05;;
40367;SDS011;26075;43.320;21.920;2023-02-11T14:59:15;50.08;;;31.65;;
40367;SDS011;26075;43.320;21.920;2023-02-11T15:04:32;43.42;;;29.52;;
40367;SDS011;26075;43.320;21.920;2023-02-11T15:09:39;51.97;;;31.83;;
40367;SDS011;26075;43.320;21.920;2023-02-11T15:14:44;41.60;;;29.98;;
40367;SDS011;26075;43.320;21.920;2023-02-11T15:19:48;44.83;;;29.90;;
40367;SDS011;26075;43.320;21.920;2023-02-11T15:24:59;44.27;;;30.13;;
40367;SDS011;26075;43.320;21.920;2023-02-11T15:35:32;48.30;;;31.55;;
40367;SDS011;26075;43.320;21.920;2023-02-11T15:56:35;68.82;;;45.17;;
40367;SDS011;26075;43.320;21.920;2023-02-11T16:13:23;82.45;;;52.58;;
40367;SDS011;26075;43.320;21.920;2023-02-11T16:24:00;86.95;;;54.72;;
40367;SDS011;26075;43.320;21.920;2023-02-11T16:29:10;211.00;;;129.38;;
40367;SDS011;26075;43.320;21.920;2023-02-11T16:34:16;230.57;;;142.75;;
40367;SDS011;26075;43.320;21.920;2023-02-11T16:39:19;258.37;;;164.90;;
40367;SDS011;26075;43.320;21.920;2023-02-11T16:44:23;262.80;;;156.88;;
40367;SDS011;26075;43.320;21.920;2023-02-11T16:49:28;198.18;;;123.07;;
40367;SDS011;26075;43.320;21.920;2023-02-11T16:54:31;194.90;;;119.03;;
40367;SDS011;26075;43.320;21.920;2023-02-11T17:05:10;148.73;;;91.13;;
40367;SDS011;26075;43.320;21.920;2023-02-11T17:10:18;123.32;;;80.03;;
40367;SDS011;26075;43.320;21.920;2023-02-11T17:15:21;158.88;;;98.18;;
40367;SDS011;26075;43.320;21.920;2023-02-11T17:20:22;197.60;;;124.68;;
40367;SDS011;26075;43.320;21.920;2023-02-11T17:25:23;198.73;;;128.20;;
40367;SDS011;26075;43.320;21.920;2023-02-11T17:30:24;206.30;;;135.23;;
40367;SDS011;26075;43.320;21.920;2023-02-11T17:35:25;252.13;;;162.80;;
40367;SDS011;26075;43.320;21.920;2023-02-11T17:46:08;237.55;;;148.63;;
40367;SDS011;26075;43.320;21.920;2023-02-11T17:56:34;230.27;;;146.70;;
40367;SDS011;26075;43.320;21.920;2023-02-11T18:07:02;190.18;;;125.70;;
40367;SDS011;26075;43.320;21.920;2023-02-11T18:12:04;172.43;;;111.57;;
40367;SDS011;26075;43.320;21.920;2023-02-11T18:17:05;183.43;;;114.70;;
40367;SDS011;26075;43.320;21.920;2023-02-11T18:27:39;158.73;;;103.63;;
40367;SDS011;26075;43.320;21.920;2023-02-11T18:32:41;144.38;;;92.93;;
40367;SDS011;26075;43.320;21.920;2023-02-11T18:37:42;151.43;;;99.30;;
40367;SDS011;26075;43.320;21.920;2023-02-11T18:42:44;168.30;;;106.00;;
40367;SDS011;26075;43.320;21.920;2023-02-11T18:47:45;154.45;;;101.10;;
40367;SDS011;26075;43.320;21.920;2023-02-11T18:52:45;144.32;;;96.43;;
40367;SDS011;26075;43.320;21.920;2023-02-11T18:57:47;139.40;;;88.00;;
40367;SDS011;26075;43.320;21.920;2023-02-11T19:02:47;120.40;;;75.90;;
40367;SDS011;26075;43.320;21.920;2023-02-11T19:07:48;111.38;;;71.00;;
40367;SDS011;26075;43.320;21.920;2023-02-11T19:12:51;122.72;;;76.05;;
40367;SDS011;26075;43.320;21.920;2023-02-11T19:17:55;120.65;;;79.45;;
40367;SDS011;26075;43.320;21.920;2023-02-11T19:22:56;115.43;;;76.38;;
40367;SDS011;26075;43.320;21.920;2023-02-11T19:27:56;110.53;;;73.28;;
40367;SDS011;26075;43.320;21.920;2023-02-11T19:32:57;114.05;;;74.28;;
40367;SDS011;26075;43.320;21.920;2023-02-11T19:37:58;123.00;;;80.78;;
40367;SDS011;26075;43.320;21.920;2023-02-11T19:42:59;121.47;;;79.03;;
40367;SDS011;26075;43.320;21.920;2023-02-11T19:48:00;117.18;;;75.85;;
40367;SDS011;26075;43.320;21.920;2023-02-11T19:53:01;132.15;;;78.22;;
40367;SDS011;26075;43.320;21.920;2023-02-11T19:58:04;133.25;;;87.78;;
40367;SDS011;26075;43.320;21.920;2023-02-11T20:03:05;150.32;;;97.88;;
40367;SDS011;26075;43.320;21.920;2023-02-11T20:08:06;140.95;;;93.28;;
40367;SDS011;26075;43.320;21.920;2023-02-11T20:13:07;124.93;;;83.32;;
40367;SDS011;26075;43.320;21.920;2023-02-11T20:23:51;125.75;;;82.03;;
40367;SDS011;26075;43.320;21.920;2023-02-11T20:34:49;144.82;;;95.95;;
40367;SDS011;26075;43.320;21.920;2023-02-11T20:39:50;165.88;;;104.75;;
40367;SDS011;26075;43.320;21.920;2023-02-11T20:44:50;160.00;;;101.68;;
40367;SDS011;26075;43.320;21.920;2023-02-11T20:49:52;140.02;;;90.68;;
40367;SDS011;26075;43.320;21.920;2023-02-11T20:54:54;131.35;;;85.07;;
40367;SDS011;26075;43.320;21.920;2023-02-11T20:59:55;114.45;;;72.65;;
40367;SDS011;26075;43.320;21.920;2023-02-11T21:04:56;107.45;;;68.03;;
40367;SDS011;26075;43.320;21.920;2023-02-11T21:15:34;112.75;;;69.70;;
40367;SDS011;26075;43.320;21.920;2023-02-11T21:20:35;110.88;;;67.95;;
40367;SDS011;26075;43.320;21.920;2023-02-11T21:25:37;108.50;;;72.57;;
40367;SDS011;26075;43.320;21.920;2023-02-11T21:36:31;117.65;;;77.78;;
40367;SDS011;26075;43.320;21.920;2023-02-11T21:41:32;131.63;;;78.60;;
40367;SDS011;26075;43.320;21.920;2023-02-11T21:46:33;129.18;;;82.65;;
40367;SDS011;26075;43.320;21.920;2023-02-11T21:51:34;126.35;;;77.88;;
40367;SDS011;26075;43.320;21.920;2023-02-11T21:56:35;123.60;;;78.05;;
40367;SDS011;26075;43.320;21.920;2023-02-11T22:01:36;128.20;;;79.40;;
40367;SDS011;26075;43.320;21.920;2023-02-11T22:06:37;135.52;;;86.93;;
40367;SDS011;26075;43.320;21.920;2023-02-11T22:22:53;125.70;;;79.13;;
40367;SDS011;26075;43.320;21.920;2023-02-11T22:33:19;127.93;;;80.97;;
40367;SDS011;26075;43.320;21.920;2023-02-11T22:49:28;171.50;;;110.82;;
40367;SDS011;26075;43.320;21.920;2023-02-11T22:54:31;141.75;;;92.07;;
40367;SDS011;26075;43.320;21.920;2023-02-11T23:04:58;123.55;;;82.70;;
40367;SDS011;26075;43.320;21.920;2023-02-11T23:10:14;128.63;;;82.88;;
40367;SDS011;26075;43.320;21.920;2023-02-11T23:26:00;115.32;;;74.63;;
40367;SDS011;26075;43.320;21.920;2023-02-11T23:31:17;113.47;;;76.03;;
40367;SDS011;26075;43.320;21.920;2023-02-11T23:36:21;130.52;;;82.65;;
40367;SDS011;26075;43.320;21.920;2023-02-11T23:41:22;128.30;;;85.40;;
40367;SDS011;26075;43.320;21.920;2023-02-11T23:46:23;130.93;;;87.63;;
40367;SDS011;26075;43.320;21.920;2023-02-11T23:51:25;135.85;;;89.32;;
40367;SDS011;26075;43.320;21.920;2023-02-11T23:56:26;135.40;;;89.57;;
